.
WxDataArchive / Data Records for 2015-08-21
2015-08-20 August 2015 2015-08-22

Data Records for Friday, 21 August 2015

Time	Temp	Chill	HIndex	Humid	Dewpt	 Wind 	HiWind	WindDir	Rain 	Barom
-----	----	-----	------	-----	-----	------	------	-------	-----	-----
00:00	61.0	61.0	61.0	69	50.8	0	0	---	0.00	30.007 
00:05	60.9	60.9	60.9	71	51.4	0	0	---	0.00	30.007 
00:10	60.5	60.5	60.5	71	51.0	0	0	---	0.00	30.007 
00:15	60.4	60.4	60.4	72	51.3	0	0	---	0.00	30.007 
00:20	60.2	60.2	60.2	72	51.1	0	0	---	0.00	30.007 
00:25	60.1	60.1	60.1	72	51.0	0	0	---	0.00	30.007 
00:30	60.1	60.1	60.1	72	51.0	0	0	---	0.00	30.011 
00:35	59.9	59.9	59.9	72	50.8	0	0	---	0.00	30.011 
00:40	59.9	59.9	59.9	73	51.2	0	0	---	0.00	30.011 
00:45	59.9	59.9	59.9	74	51.6	0	0	---	0.00	30.012 
00:50	59.8	59.8	59.8	73	51.1	0	0	---	0.00	30.012 
00:55	59.8	59.8	59.8	73	51.1	0	0	---	0.00	30.012 
01:00	59.8	59.8	59.8	73	51.1	0	0	---	0.00	30.015 
01:05	59.6	59.6	59.6	74	51.3	0	0	---	0.00	30.015 
01:10	59.5	59.5	59.5	75	51.6	0	0	---	0.00	30.015 
01:15	59.3	59.3	59.3	74	51.0	0	0	---	0.00	30.023 
01:20	59.2	59.2	59.2	75	51.3	0	0	---	0.00	30.023 
01:25	59.2	59.2	59.2	75	51.3	0	0	---	0.00	30.023 
01:30	58.9	58.9	58.9	76	51.3	0	0	---	0.00	30.024 
01:35	58.9	58.9	58.9	76	51.3	0	0	---	0.00	30.024 
01:40	58.7	58.7	58.7	77	51.5	0	0	---	0.00	30.024 
01:45	58.6	58.6	58.6	77	51.4	0	0	---	0.00	30.024 
01:50	58.4	58.4	58.4	77	51.2	0	0	---	0.00	30.024 
01:55	58.3	58.3	58.3	78	51.5	0	0	---	0.00	30.024 
02:00	58.1	58.1	58.1	78	51.3	0	0	---	0.00	30.026 
02:05	58.0	58.0	58.0	79	51.5	0	0	---	0.00	30.026 
02:10	57.8	57.8	57.8	79	51.3	0	0	---	0.00	30.026 
02:15	57.6	57.6	57.6	79	51.1	0	0	---	0.00	30.024 
02:20	57.5	57.5	57.5	80	51.4	0	0	---	0.00	30.024 
02:25	57.5	57.5	57.5	81	51.7	0	0	---	0.00	30.024 
02:30	57.3	57.3	57.3	80	51.2	0	0	---	0.00	30.025 
02:35	57.3	57.3	57.3	81	51.5	0	0	---	0.00	30.025 
02:40	57.2	57.2	57.2	80	51.1	0	0	---	0.00	30.025 
02:45	57.2	57.2	57.2	81	51.4	0	0	---	0.00	30.023 
02:50	57.0	57.0	57.0	81	51.2	0	0	---	0.00	30.023 
02:55	57.0	57.0	57.0	81	51.2	0	0	---	0.00	30.023 
03:00	56.9	56.9	56.9	81	51.1	0	0	---	0.00	30.020 
03:05	56.9	56.9	56.9	82	51.5	0	0	---	0.00	30.020 
03:10	56.7	56.7	56.7	82	51.3	0	0	---	0.00	30.020 
03:15	56.7	56.7	56.7	82	51.3	0	0	---	0.00	30.024 
03:20	56.6	56.6	56.6	82	51.2	0	0	---	0.00	30.024 
03:25	56.6	56.6	56.6	82	51.2	0	0	---	0.00	30.024 
03:30	56.6	56.6	56.6	82	51.2	0	0	---	0.00	30.024 
03:35	56.7	56.7	56.7	82	51.3	0	0	---	0.00	30.024 
03:40	56.7	56.7	56.7	82	51.3	0	0	---	0.00	30.024 
03:45	56.7	56.7	56.7	82	51.3	0	0	---	0.00	30.026 
03:50	56.7	56.7	56.7	82	51.3	0	0	---	0.00	30.026 
03:55	56.7	56.7	56.7	82	51.3	0	0	---	0.00	30.026 
04:00	56.6	56.6	56.6	82	51.2	0	0	---	0.00	30.027 
04:05	56.6	56.6	56.6	82	51.2	0	0	---	0.00	30.027 
04:10	56.6	56.6	56.6	82	51.2	0	0	---	0.00	30.027 
04:15	56.6	56.6	56.6	82	51.2	0	0	---	0.00	30.029 
04:20	56.6	56.6	56.6	82	51.2	0	0	---	0.00	30.029 
04:25	56.5	56.5	56.5	82	51.1	0	0	---	0.00	30.029 
04:30	56.5	56.5	56.5	83	51.4	0	0	---	0.00	30.032 
04:35	56.5	56.5	56.5	83	51.4	0	0	---	0.00	30.032 
04:40	56.5	56.5	56.5	83	51.4	0	0	---	0.00	30.032 
04:45	56.3	56.3	56.3	83	51.2	0	0	---	0.00	30.035 
04:50	56.3	56.3	56.3	83	51.2	0	0	---	0.00	30.035 
04:55	56.3	56.3	56.3	83	51.2	0	0	---	0.00	30.035 
05:00	56.3	56.3	56.3	83	51.2	0	0	---	0.00	30.036 
05:05	56.3	56.3	56.3	83	51.2	0	0	---	0.00	30.036 
05:10	56.3	56.3	56.3	83	51.2	0	0	---	0.00	30.036 
05:15	56.2	56.2	56.2	83	51.1	0	0	---	0.00	30.034 
05:20	56.2	56.2	56.2	84	51.4	0	0	---	0.00	30.034 
05:25	56.0	56.0	56.0	84	51.2	0	0	---	0.00	30.034 
05:30	56.0	56.0	56.0	84	51.2	0	0	---	0.00	30.036 
05:35	55.9	55.9	55.9	84	51.1	0	0	---	0.00	30.036 
05:40	55.7	55.7	55.7	84	50.9	0	0	---	0.00	30.036 
05:45	55.7	55.7	55.7	84	50.9	0	0	---	0.00	30.039 
05:50	55.6	55.6	55.6	84	50.8	0	0	---	0.00	30.039 
05:55	55.6	55.6	55.6	85	51.2	0	0	---	0.00	30.039 
06:00	55.4	55.4	55.4	85	51.0	0	0	---	0.00	30.043 
06:05	55.4	55.4	55.4	85	51.0	0	0	---	0.00	30.043 
06:10	55.3	55.3	55.3	85	50.9	0	0	---	0.00	30.043 
06:15	55.3	55.3	55.3	85	50.9	0	0	---	0.00	30.045 
06:20	55.1	55.1	55.1	85	50.7	0	0	---	0.00	30.045 
06:25	55.0	55.0	55.0	86	50.9	0	0	---	0.00	30.045 
06:30	54.8	54.8	54.8	86	50.7	0	0	---	0.00	30.046 
06:35	54.7	54.7	54.7	86	50.6	0	0	---	0.00	30.046 
06:40	54.5	54.5	54.5	86	50.4	0	0	---	0.00	30.046 
06:45	54.4	54.4	54.4	87	50.6	0	0	---	0.00	30.050 
06:50	54.2	54.2	54.2	87	50.4	0	0	---	0.00	30.050 
06:55	54.1	54.1	54.1	87	50.3	0	0	---	0.00	30.050 
07:00	54.1	54.1	54.1	88	50.6	0	0	---	0.00	30.060 
07:05	53.9	53.9	53.9	88	50.4	0	0	---	0.00	30.060 
07:10	53.9	53.9	53.9	88	50.4	0	0	---	0.00	30.060 
07:15	53.8	53.8	53.8	88	50.3	0	0	---	0.00	30.064 
07:20	53.8	53.8	53.8	89	50.6	0	0	---	0.00	30.064 
07:25	53.8	53.8	53.8	89	50.6	0	0	---	0.00	30.064 
07:30	53.8	53.8	53.8	89	50.6	0	0	---	0.00	30.072 
07:35	53.8	53.8	53.8	89	50.6	0	0	---	0.00	30.072 
07:40	53.9	53.9	53.9	89	50.7	0	0	---	0.00	30.072 
07:45	54.1	54.1	54.1	89	50.9	0	0	---	0.00	30.079 
07:50	54.4	54.4	54.4	89	51.2	0	0	---	0.00	30.079 
07:55	55.0	55.0	55.0	90	52.1	0	0	---	0.00	30.079 
08:00	55.7	55.7	55.7	90	52.8	0	0	---	0.00	30.079 
08:05	56.7	56.7	56.7	88	53.2	0	0	---	0.00	30.079 
08:10	58.1	58.1	58.1	84	53.3	0	0	---	0.00	30.079 
08:15	59.2	59.2	59.2	84	54.4	0	0	---	0.00	30.087 
08:20	59.6	59.6	59.6	81	53.8	0	0	---	0.00	30.087 
08:25	59.9	59.9	59.9	79	53.4	0	1	292	0.00	30.087 
08:30	60.2	60.2	60.2	78	53.3	0	2	292	0.00	30.091 
08:35	60.5	60.5	60.5	77	53.2	0	1	292	0.00	30.091 
08:40	61.0	61.0	61.0	76	53.4	0	1	292	0.00	30.091 
08:45	61.5	61.5	61.5	75	53.5	0	1	292	0.00	30.092 
08:50	62.0	62.0	62.0	75	54.0	0	1	292	0.00	30.092 
08:55	62.4	62.4	62.4	74	54.0	0	1	292	0.00	30.092 
09:00	62.7	62.7	62.7	73	53.9	0	0	---	0.00	30.102 
09:05	63.1	63.1	63.1	72	53.9	0	1	45	0.00	30.102 
09:10	63.4	63.4	63.4	72	54.2	0	1	45	0.00	30.102 
09:15	63.7	63.7	63.7	71	54.1	0	1	45	0.00	30.104 
09:20	63.9	63.9	63.9	69	53.5	0	1	45	0.00	30.104 
09:25	64.3	64.3	64.3	69	53.9	0	1	45	0.00	30.104 
09:30	64.7	64.7	64.7	69	54.3	0	1	22	0.00	30.104 
09:35	65.0	65.0	65.0	67	53.8	0	2	22	0.00	30.104 
09:40	65.5	65.5	65.5	66	53.8	0	3	270	0.00	30.104 
09:45	65.8	65.8	65.8	67	54.5	0	0	---	0.00	30.101 
09:50	66.3	66.3	66.3	64	53.7	0	1	270	0.00	30.101 
09:55	66.8	66.8	66.8	63	53.8	0	2	270	0.00	30.101 
10:00	67.3	67.3	67.3	62	53.8	0	2	270	0.00	30.102 
10:05	67.6	67.6	67.6	60	53.2	0	1	270	0.00	30.102 
10:10	67.9	67.9	67.9	58	52.6	0	2	270	0.00	30.102 
10:15	68.4	68.4	68.4	58	53.0	0	2	270	0.00	30.105 
10:20	68.8	68.8	68.8	57	52.9	0	2	270	0.00	30.105 
10:25	69.4	69.4	69.4	57	53.5	0	1	270	0.00	30.105 
10:30	70.1	70.1	70.1	56	53.7	0	1	270	0.00	30.105 
10:35	70.8	70.8	70.8	52	52.3	0	1	270	0.00	30.105 
10:40	71.8	71.8	71.8	52	53.2	0	2	270	0.00	30.105 
10:45	72.8	72.8	72.8	49	52.5	1	2	270	0.00	30.105 
10:50	73.5	73.5	73.5	48	52.6	0	2	270	0.00	30.105 
10:55	74.2	74.2	74.2	51	54.9	0	1	270	0.00	30.105 
11:00	74.4	74.4	74.4	46	52.3	0	1	270	0.00	30.105 
11:05	74.2	74.2	74.2	46	52.1	0	1	270	0.00	30.105 
11:10	74.9	74.9	74.9	45	52.1	0	2	270	0.00	30.105 
11:15	75.4	75.4	77.7	42	50.7	1	2	270	0.00	30.106 
11:20	75.1	75.1	77.7	46	52.9	1	3	270	0.00	30.106 
11:25	75.1	75.1	77.7	47	53.5	0	4	270	0.00	30.106 
11:30	75.3	75.3	77.7	50	55.4	0	2	270	0.00	30.106 
11:35	75.4	75.4	77.8	46	53.2	0	2	270	0.00	30.106 
11:40	75.4	75.4	77.8	46	53.2	1	5	90	0.00	30.106 
11:45	75.6	75.6	77.8	46	53.3	0	2	90	0.00	30.108 
11:50	76.1	76.1	77.9	42	51.3	0	1	90	0.00	30.108 
11:55	76.0	76.0	78.0	46	53.7	0	2	90	0.00	30.108 
12:00	76.5	76.5	78.0	39	49.7	0	3	90	0.00	30.113 
12:05	76.8	76.8	78.0	38	49.2	0	4	90	0.00	30.113 
12:10	76.5	76.5	78.1	41	51.0	0	1	90	0.00	30.113 
12:15	76.5	76.5	78.1	42	51.7	0	1	90	0.00	30.113 
12:20	76.5	76.5	78.1	42	51.7	0	2	90	0.00	30.113 
12:25	76.8	76.8	78.2	42	51.9	1	3	90	0.00	30.113 
12:30	77.6	77.6	78.5	39	50.7	0	1	90	0.00	30.112 
12:35	77.9	77.9	78.6	39	50.9	1	4	90	0.00	30.112 
12:40	77.9	77.9	78.7	40	51.6	1	4	90	0.00	30.112 
12:45	77.9	77.9	78.5	37	49.5	0	1	90	0.00	30.112 
12:50	77.6	77.6	78.4	37	49.2	0	2	90	0.00	30.112 
12:55	77.0	77.0	78.0	36	48.0	1	3	90	0.00	30.112 
13:00	76.7	76.7	78.1	39	49.9	1	3	90	0.00	30.112 
13:05	76.3	76.3	77.7	35	46.6	1	4	90	0.00	30.112 
13:10	76.3	76.3	78.0	41	50.8	0	2	0	0.00	30.112 
13:15	76.7	76.7	78.0	37	48.4	1	5	90	0.00	30.111 
13:20	76.8	76.8	78.0	37	48.5	0	1	90	0.00	30.111 
13:25	77.0	77.0	78.2	40	50.8	0	2	90	0.00	30.111 
13:30	77.0	77.0	78.2	39	50.1	0	2	90	0.00	30.111 
13:35	77.2	77.2	78.2	38	49.6	0	2	90	0.00	30.111 
13:40	77.2	77.2	78.2	38	49.6	1	4	90	0.00	30.111 
13:45	77.4	77.4	78.2	36	48.3	0	2	90	0.00	30.109 
13:50	77.7	77.7	78.7	43	53.4	0	2	90	0.00	30.109 
13:55	77.7	77.7	78.3	36	48.6	1	3	90	0.00	30.109 
14:00	77.4	77.4	78.2	36	48.3	1	3	90	0.00	30.107 
14:05	77.4	77.4	78.1	35	47.6	1	2	90	0.00	30.107 
14:10	77.6	77.6	78.6	41	52.0	0	3	90	0.00	30.107 
14:15	77.6	77.6	78.4	38	50.0	0	3	90	0.00	30.103 
14:20	77.7	77.7	78.3	36	48.6	1	3	90	0.00	30.103 
14:25	77.9	77.9	78.5	37	49.5	0	3	90	0.00	30.103 
14:30	77.7	77.7	78.6	40	51.4	1	3	90	0.00	30.102 
14:35	77.7	77.7	78.5	38	50.0	1	3	292	0.00	30.102 
14:40	77.7	77.7	78.6	40	51.4	0	3	292	0.00	30.102 
14:45	77.9	77.9	78.6	39	50.9	1	4	112	0.00	30.102 
14:50	78.3	78.3	78.8	39	51.3	0	2	112	0.00	30.102 
14:55	78.5	78.5	78.7	36	49.3	1	2	112	0.00	30.102 
15:00	78.3	78.3	78.7	37	49.9	1	3	112	0.00	30.102 
15:05	77.9	77.9	78.4	36	48.8	1	4	22	0.00	30.102 
15:10	77.7	77.7	78.4	37	49.3	0	2	22	0.00	30.102 
15:15	77.9	77.9	78.7	40	51.6	0	2	22	0.00	30.100 
15:20	78.5	78.5	78.8	37	50.0	0	1	22	0.00	30.100 
15:25	78.8	78.8	79.1	39	51.7	1	2	22	0.00	30.100 
15:30	79.0	79.0	79.1	37	50.5	1	3	22	0.00	30.090 
15:35	79.4	79.4	79.5	39	52.3	0	1	22	0.00	30.090 
15:40	79.9	79.9	79.7	38	52.0	0	1	22	0.00	30.090 
15:45	80.3	80.3	80.1	39	53.1	0	1	22	0.00	30.086 
15:50	80.1	80.1	79.7	36	50.7	0	2	22	0.00	30.086 
15:55	79.6	79.6	79.4	37	51.0	0	2	22	0.00	30.086 
16:00	79.4	79.4	79.4	38	51.6	0	1	22	0.00	30.086 
16:05	79.2	79.2	79.2	37	50.7	1	2	22	0.00	30.086 
16:10	79.2	79.2	79.4	40	52.8	0	2	22	0.00	30.086 
16:15	79.0	79.0	79.1	37	50.5	0	2	22	0.00	30.089 
16:20	78.8	78.8	78.8	35	48.8	0	2	22	0.00	30.089 
16:25	79.0	79.0	79.2	39	51.9	0	1	0	0.00	30.089 
16:30	79.4	79.4	79.5	40	52.9	0	2	0	0.00	30.088 
16:35	79.4	79.4	79.5	39	52.3	1	6	90	0.00	30.088 
16:40	79.4	79.4	79.5	40	52.9	0	3	90	0.00	30.088 
16:45	79.4	79.4	79.6	41	53.6	1	3	90	0.00	30.086 
16:50	79.0	79.0	79.4	41	53.3	1	3	90	0.00	30.086 
16:55	78.6	78.6	79.1	41	52.9	0	1	90	0.00	30.086 
17:00	78.3	78.3	79.0	42	53.3	0	2	90	0.00	30.085 
17:05	77.4	77.4	78.6	44	53.8	1	5	90	0.00	30.085 
17:10	76.7	76.7	78.3	44	53.1	1	4	90	0.00	30.085 
17:15	76.3	76.3	78.1	46	54.0	0	1	90	0.00	30.088 
17:20	76.5	76.5	78.2	44	52.9	0	2	90	0.00	30.088 
17:25	76.8	76.8	78.4	46	54.4	1	3	90	0.00	30.088 
17:30	77.0	77.0	78.5	47	55.2	1	4	90	0.00	30.077 
17:35	77.4	77.4	78.6	45	54.4	0	3	90	0.00	30.077 
17:40	77.6	77.6	78.7	44	53.9	0	1	90	0.00	30.077 
17:45	77.7	77.7	78.7	42	52.8	0	2	90	0.00	30.077 
17:50	77.7	77.7	78.7	42	52.8	0	2	90	0.00	30.077 
17:55	77.7	77.7	78.8	44	54.0	0	2	90	0.00	30.077 
18:00	77.6	77.6	78.7	43	53.3	0	2	90	0.00	30.074 
18:05	77.6	77.6	78.7	43	53.3	0	2	90	0.00	30.074 
18:10	77.4	77.4	78.6	43	53.1	0	2	90	0.00	30.074 
18:15	77.2	77.2	78.5	43	52.9	1	2	90	0.00	30.076 
18:20	76.7	76.7	78.3	44	53.1	1	3	90	0.00	30.076 
18:25	76.3	76.3	78.1	46	54.0	0	2	90	0.00	30.076 
18:30	75.8	75.8	77.9	46	53.5	0	3	90	0.00	30.075 
18:35	75.6	75.6	77.9	47	53.9	0	1	90	0.00	30.075 
18:40	75.3	75.3	77.7	47	53.7	0	1	90	0.00	30.075 
18:45	75.3	75.3	77.7	48	54.2	0	0	---	0.00	30.076 
18:50	75.1	75.1	77.7	48	54.1	0	1	90	0.00	30.076 
18:55	74.7	74.7	74.7	49	54.3	0	0	---	0.00	30.076 
19:00	74.6	74.6	74.6	50	54.7	0	0	---	0.00	30.074 
19:05	74.4	74.4	74.4	49	54.0	0	0	---	0.00	30.074 
19:10	74.0	74.0	74.0	51	54.7	0	0	---	0.00	30.074 
19:15	73.9	73.9	73.9	51	54.6	0	0	---	0.00	30.074 
19:20	73.5	73.5	73.5	52	54.8	0	0	---	0.00	30.074 
19:25	73.0	73.0	73.0	53	54.8	0	0	---	0.00	30.074 
19:30	72.8	72.8	72.8	54	55.2	0	0	---	0.00	30.075 
19:35	72.7	72.7	72.7	55	55.6	0	0	---	0.00	30.075 
19:40	72.5	72.5	72.5	56	55.9	0	0	---	0.00	30.075 
19:45	72.3	72.3	72.3	56	55.7	0	0	---	0.00	30.074 
19:50	72.1	72.1	72.1	55	55.0	0	0	---	0.00	30.074 
19:55	72.1	72.1	72.1	56	55.5	0	0	---	0.00	30.074 
20:00	72.0	72.0	72.0	55	54.9	0	0	---	0.00	30.075 
20:05	72.0	72.0	72.0	57	55.9	0	0	---	0.00	30.075 
20:10	71.8	71.8	71.8	58	56.2	0	0	---	0.00	30.075 
20:15	71.6	71.6	71.6	59	56.5	0	0	---	0.00	30.070 
20:20	71.5	71.5	71.5	59	56.4	0	0	---	0.00	30.070 
20:25	71.1	71.1	71.1	60	56.5	0	0	---	0.00	30.070 
20:30	70.9	70.9	70.9	61	56.8	0	0	---	0.00	30.070 
20:35	70.6	70.6	70.6	62	56.9	0	0	---	0.00	30.070 
20:40	70.3	70.3	70.3	63	57.1	0	0	---	0.00	30.070 
20:45	69.9	69.9	69.9	63	56.7	0	0	---	0.00	30.072 
20:50	69.6	69.6	69.6	63	56.4	0	0	---	0.00	30.072 
20:55	69.1	69.1	69.1	63	56.0	0	0	---	0.00	30.072 
21:00	68.8	68.8	68.8	65	56.5	0	0	---	0.00	30.075 
21:05	68.4	68.4	68.4	66	56.6	0	0	---	0.00	30.075 
21:10	68.1	68.1	68.1	67	56.7	0	0	---	0.00	30.075 
21:15	67.9	67.9	67.9	68	56.9	0	0	---	0.00	30.081 
21:20	67.6	67.6	67.6	69	57.1	0	0	---	0.00	30.081 
21:25	67.3	67.3	67.3	70	57.2	0	0	---	0.00	30.081 
21:30	67.1	67.1	67.1	72	57.8	0	0	---	0.00	30.085 
21:35	66.8	66.8	66.8	73	57.9	0	0	---	0.00	30.085 
21:40	66.6	66.6	66.6	73	57.7	0	0	---	0.00	30.085 
21:45	66.3	66.3	66.3	74	57.8	0	0	---	0.00	30.090 
21:50	66.1	66.1	66.1	75	57.9	0	0	---	0.00	30.090 
21:55	65.8	65.8	65.8	76	58.0	0	0	---	0.00	30.090 
22:00	65.6	65.6	65.6	77	58.2	0	0	---	0.00	30.089 
22:05	65.5	65.5	65.5	77	58.1	0	0	---	0.00	30.089 
22:10	65.2	65.2	65.2	78	58.2	0	0	---	0.00	30.089 
22:15	65.0	65.0	65.0	78	58.0	0	0	---	0.00	30.087 
22:20	64.8	64.8	64.8	78	57.8	0	0	---	0.00	30.087 
22:25	64.7	64.7	64.7	79	58.0	0	0	---	0.00	30.087 
22:30	64.5	64.5	64.5	79	57.8	0	0	---	0.00	30.092 
22:35	64.3	64.3	64.3	80	58.0	0	0	---	0.00	30.092 
22:40	64.2	64.2	64.2	80	57.9	0	0	---	0.00	30.092 
22:45	64.0	64.0	64.0	81	58.0	0	0	---	0.00	30.088 
22:50	63.9	63.9	63.9	81	57.9	0	0	---	0.00	30.088 
22:55	63.7	63.7	63.7	81	57.8	0	0	---	0.00	30.088 
23:00	63.5	63.5	63.5	81	57.6	0	0	---	0.00	30.086 
23:05	63.4	63.4	63.4	81	57.5	0	0	---	0.00	30.086 
23:10	63.2	63.2	63.2	82	57.6	0	0	---	0.00	30.086 
23:15	63.1	63.1	63.1	82	57.5	0	0	---	0.00	30.084 
23:20	62.9	62.9	62.9	82	57.3	0	0	---	0.00	30.084 
23:25	62.9	62.9	62.9	82	57.3	0	0	---	0.00	30.084 
23:30	62.7	62.7	62.7	83	57.5	0	0	---	0.00	30.084 
23:35	62.6	62.6	62.6	83	57.4	0	0	---	0.00	30.084 
23:40	62.4	62.4	62.4	84	57.5	0	0	---	0.00	30.084 
23:45	62.4	62.4	62.4	84	57.5	0	0	---	0.00	30.089 
23:50	62.3	62.3	62.3	84	57.4	0	0	---	0.00	30.089 
23:55	62.1	62.1	62.1	84	57.2	0	0	---	0.00	30.089 

CoCoRaHS
IN-AL-39
A2 Web Hosting
Creative Commons License
GoDaddy
search engine by freefind advanced

loaded 2018-11-13 01:39:38 • last modified 2010-11-18 10:43:29
Privacy PolicyDisclaimer
• wx.awcolley.com is powered by PmWiki v.2002016 •
• all content (unless otherwise noted) © 2018 A W Colley